createdAt,value
2018-02-10T00:01:58.745Z,52.13
2018-02-10T00:04:25.336Z,53.25
2018-02-10T00:06:51.918Z,47.53
2018-02-10T00:09:18.602Z,48.53
2018-02-10T00:11:45.230Z,46.60
2018-02-10T00:14:12.898Z,55.67
2018-02-10T00:16:39.461Z,56.40
2018-02-10T00:19:06.077Z,53.87
2018-02-10T00:21:32.627Z,56.47
2018-02-10T00:23:59.255Z,49.90
2018-02-10T00:26:25.806Z,49.33
2018-02-10T00:28:52.423Z,49.47
2018-02-10T00:31:19.021Z,52.25
2018-02-10T00:33:45.629Z,51.50
2018-02-10T00:36:12.317Z,53.97
2018-02-10T00:38:38.974Z,56.85
2018-02-10T00:41:05.565Z,55.35
2018-02-10T00:43:32.135Z,57.22
2018-02-10T00:45:59.578Z,59.42
2018-02-10T00:48:26.866Z,56.55
2018-02-10T00:50:53.459Z,54.50
2018-02-10T00:53:20.750Z,54.92
2018-02-10T00:55:48.298Z,55.83
2018-02-10T00:58:14.846Z,53.03
2018-02-10T01:00:41.495Z,57.45
2018-02-10T01:03:08.065Z,56.35
2018-02-10T01:05:34.885Z,52.62
2018-02-10T01:08:02.301Z,58.60
2018-02-10T01:10:28.889Z,52.88
2018-02-10T01:12:55.448Z,55.85
2018-02-10T01:15:22.030Z,53.33
2018-02-10T01:17:48.642Z,54.17
2018-02-10T01:20:15.207Z,56.47
2018-02-10T01:22:41.785Z,57.85
2018-02-10T01:25:08.329Z,55.28
2018-02-10T01:27:35.657Z,57.42
2018-02-10T01:30:02.297Z,60.92
2018-02-10T01:32:28.867Z,54.75
2018-02-10T01:34:56.150Z,53.95
2018-02-10T01:37:22.738Z,57.78
2018-02-10T01:39:50.045Z,58.15
2018-02-10T01:42:16.635Z,61.75
2018-02-10T01:44:43.917Z,59.22
2018-02-10T01:47:11.810Z,64.80
2018-02-10T01:49:38.503Z,61.50
2018-02-10T01:52:05.067Z,58.28
2018-02-10T01:54:31.724Z,75.82
2018-02-10T01:56:58.278Z,57.22
2018-02-10T01:59:24.851Z,66.05
2018-02-10T02:01:52.137Z,65.75
2018-02-10T02:04:18.745Z,67.03
2018-02-10T02:06:46.054Z,68.10
2018-02-10T02:09:12.672Z,64.93
2018-02-10T02:11:39.281Z,61.00
2018-02-10T02:14:05.895Z,61.30
2018-02-10T02:16:33.974Z,60.40
2018-02-10T02:19:00.550Z,64.35
2018-02-10T02:21:27.183Z,63.78
2018-02-10T02:23:53.757Z,58.30
2018-02-10T02:26:21.150Z,67.15
2018-02-10T02:28:47.737Z,64.30
2018-02-10T02:31:15.083Z,65.15
2018-02-10T02:33:41.698Z,61.10
2018-02-10T02:36:08.257Z,59.05
2018-02-10T02:38:34.876Z,69.80
2018-02-10T02:41:02.244Z,66.68
2018-02-10T02:43:29.170Z,63.75
2018-02-10T02:45:55.746Z,65.03
2018-02-10T02:48:22.506Z,71.43
2018-02-10T02:50:49.110Z,62.25
2018-02-10T02:53:15.679Z,67.10
2018-02-10T02:55:42.982Z,71.62
2018-02-10T02:58:09.634Z,56.03
2018-02-10T03:00:37.232Z,58.67
2018-02-10T03:03:03.839Z,61.25
2018-02-10T03:05:30.418Z,55.97
2018-02-10T03:07:57.714Z,52.53
2018-02-10T03:10:24.296Z,49.60
2018-02-10T03:12:51.645Z,56.85
2018-02-10T03:15:18.987Z,51.35
2018-02-10T03:17:45.601Z,49.70
2018-02-10T03:20:12.275Z,48.97
2018-02-10T03:22:39.594Z,51.90
2018-02-10T03:25:06.145Z,55.47
2018-02-10T03:27:32.711Z,47.97
2018-02-10T03:29:59.993Z,47.90
2018-02-10T03:32:26.600Z,50.22
2018-02-10T03:34:53.932Z,47.22
2018-02-10T03:37:20.507Z,44.40
2018-02-10T03:39:47.061Z,44.38
2018-02-10T03:42:13.717Z,50.17
2018-02-10T03:44:40.315Z,45.28
2018-02-10T03:47:06.934Z,39.17
2018-02-10T03:49:33.497Z,47.88
2018-02-10T03:52:00.135Z,44.38
2018-02-10T03:54:26.677Z,45.10
2018-02-10T03:56:53.249Z,48.60
2018-02-10T03:59:19.835Z,42.47
2018-02-10T04:01:46.402Z,42.72
2018-02-10T04:04:12.951Z,43.83
2018-02-10T04:06:39.546Z,48.78
2018-02-10T04:09:06.092Z,51.05
2018-02-10T04:11:32.667Z,48.35
2018-02-10T04:13:59.993Z,51.72
2018-02-10T04:16:26.589Z,56.65
2018-02-10T04:18:53.154Z,54.88
2018-02-10T04:21:19.723Z,50.65
2018-02-10T04:23:46.304Z,51.97
2018-02-10T04:26:12.891Z,55.08
2018-02-10T04:28:39.475Z,61.40
2018-02-10T04:31:06.057Z,59.63
2018-02-10T04:33:32.656Z,58.10
2018-02-10T04:35:59.318Z,54.60
2018-02-10T04:38:25.934Z,52.88
2018-02-10T04:40:52.493Z,51.78
2018-02-10T04:43:19.071Z,54.95
2018-02-10T04:45:45.621Z,56.60
2018-02-10T04:48:12.925Z,58.97
2018-02-10T04:50:39.478Z,53.30
2018-02-10T04:53:06.050Z,51.28
2018-02-10T04:55:33.349Z,55.00
2018-02-10T04:57:59.954Z,52.80
2018-02-10T05:00:26.581Z,61.03
2018-02-10T05:02:53.898Z,52.60
2018-02-10T05:05:20.454Z,50.88
2018-02-10T05:07:47.790Z,49.75
2018-02-10T05:10:14.355Z,54.33
2018-02-10T05:12:41.645Z,49.38
2018-02-10T05:15:08.223Z,55.00
2018-02-10T05:17:34.785Z,58.45
2018-02-10T05:20:01.409Z,52.67
2018-02-10T05:22:27.991Z,61.58
2018-02-10T05:24:54.578Z,55.88
2018-02-10T05:27:21.881Z,56.42
2018-02-10T05:29:49.414Z,58.08
2018-02-10T05:32:16.010Z,56.05
2018-02-10T05:34:42.624Z,50.40
2018-02-10T05:37:09.211Z,55.28
2018-02-10T05:39:35.810Z,53.72
2018-02-10T05:42:02.371Z,52.25
2018-02-10T05:44:28.939Z,57.25
2018-02-10T05:46:55.538Z,54.55
2018-02-10T05:49:22.156Z,49.40
2018-02-10T05:51:48.734Z,55.33
2018-02-10T05:54:16.050Z,51.75
2018-02-10T05:56:42.621Z,54.40
2018-02-10T05:59:09.966Z,55.42
2018-02-10T06:01:37.287Z,54.17
2018-02-10T06:04:03.997Z,56.95
2018-02-10T06:06:30.574Z,49.88
2018-02-10T06:08:57.138Z,51.83
2018-02-10T06:11:24.433Z,57.85
2018-02-10T06:13:51.018Z,62.15
2018-02-10T06:16:17.565Z,58.80
2018-02-10T06:18:44.870Z,63.05
2018-02-10T06:21:11.423Z,64.05
2018-02-10T06:23:38.025Z,63.45
2018-02-10T06:26:04.586Z,54.78
2018-02-10T06:28:31.168Z,55.45
2018-02-10T06:30:57.807Z,49.20
2018-02-10T06:33:25.129Z,54.47
2018-02-10T06:35:51.698Z,51.47
2018-02-10T06:38:18.298Z,51.80
2018-02-10T06:40:45.673Z,50.90
2018-02-10T06:43:14.389Z,63.40
2018-02-10T06:45:41.157Z,70.62
2018-02-10T06:48:07.806Z,61.42
2018-02-10T06:50:34.521Z,67.07
2018-02-10T06:53:01.087Z,59.05
2018-02-10T06:55:27.661Z,53.03
2018-02-10T06:57:54.241Z,54.03
2018-02-10T07:00:20.874Z,58.55
2018-02-10T07:02:47.483Z,70.68
2018-02-10T07:05:14.622Z,116.00
2018-02-10T07:07:41.189Z,94.15
2018-02-10T07:10:07.890Z,101.60
2018-02-10T07:12:35.226Z,102.10
2018-02-10T07:15:01.790Z,60.40
2018-02-10T07:17:28.430Z,61.37
2018-02-10T07:19:55.023Z,55.22
2018-02-10T07:22:21.635Z,64.43
2018-02-10T07:24:48.262Z,65.47
2018-02-10T07:27:14.904Z,65.43
2018-02-10T07:29:41.559Z,79.32
2018-02-10T07:32:08.726Z,69.43
2018-02-10T07:34:35.327Z,65.55
2018-02-10T07:37:01.921Z,66.97
2018-02-10T07:39:28.601Z,89.07
2018-02-10T07:41:55.234Z,76.55
2018-02-10T07:44:21.850Z,62.13
2018-02-10T07:46:48.466Z,58.70
2018-02-10T07:49:15.915Z,61.80
2018-02-10T07:51:42.541Z,56.50
2018-02-10T07:54:09.208Z,53.58
2018-02-10T07:56:36.520Z,55.17
2018-02-10T07:59:03.132Z,61.13
2018-02-10T08:01:29.718Z,57.60
2018-02-10T08:03:56.354Z,59.97
2018-02-10T08:06:22.929Z,58.40
2018-02-10T08:08:49.563Z,64.47
2018-02-10T08:11:16.154Z,66.90
2018-02-10T08:13:42.798Z,59.40
2018-02-10T08:16:09.433Z,54.45
2018-02-10T08:18:36.819Z,53.87
2018-02-10T08:21:03.412Z,52.53
2018-02-10T08:23:30.027Z,49.40
2018-02-10T08:25:58.156Z,51.75
2018-02-10T08:28:25.503Z,46.37
2018-02-10T08:30:52.844Z,45.28
2018-02-10T08:33:20.219Z,46.85
2018-02-10T08:35:47.557Z,50.22
2018-02-10T08:38:14.889Z,52.40
2018-02-10T08:40:41.504Z,48.33
2018-02-10T08:43:08.090Z,46.75
2018-02-10T08:45:34.697Z,46.13
2018-02-10T08:48:01.349Z,45.50
2018-02-10T08:50:28.721Z,44.63
2018-02-10T08:52:56.088Z,47.42
2018-02-10T08:55:22.782Z,51.83
2018-02-10T08:57:49.361Z,62.40
2018-02-10T09:00:15.986Z,46.78
2018-02-10T09:02:43.327Z,43.92
2018-02-10T09:05:09.938Z,45.38
2018-02-10T09:07:36.537Z,44.75
2018-02-10T09:10:03.171Z,48.58
2018-02-10T09:12:30.507Z,44.60
2018-02-10T09:14:57.444Z,42.38
2018-02-10T09:17:24.842Z,38.17
2018-02-10T09:19:51.510Z,35.85
2018-02-10T09:22:18.099Z,36.75
2018-02-10T09:24:45.523Z,35.25
2018-02-10T09:27:12.129Z,37.85
2018-02-10T09:29:38.710Z,37.45
2018-02-10T09:32:05.462Z,38.15
2018-02-10T09:34:32.121Z,34.20
2018-02-10T09:36:58.695Z,36.05
2018-02-10T09:39:25.323Z,31.67
2018-02-10T09:41:51.961Z,28.45
2018-02-10T09:44:18.535Z,27.20
2018-02-10T09:46:45.138Z,28.80
2018-02-10T09:49:11.729Z,25.95
2018-02-10T09:51:38.305Z,21.98
2018-02-10T09:54:04.906Z,24.83
2018-02-10T09:56:31.508Z,20.42
2018-02-10T09:58:58.138Z,21.75
2018-02-10T10:01:24.714Z,23.67
2018-02-10T10:03:51.325Z,20.23
2018-02-10T10:06:17.895Z,18.85
2018-02-10T10:08:44.533Z,16.73
2018-02-10T10:11:11.131Z,18.77
2018-02-10T10:13:38.522Z,19.77
2018-02-10T10:16:05.175Z,18.10
2018-02-10T10:18:31.868Z,19.17
2018-02-10T10:20:58.523Z,21.52
2018-02-10T10:23:25.219Z,17.85
2018-02-10T10:25:51.826Z,18.12
2018-02-10T10:28:18.430Z,17.55
2018-02-10T10:30:45.755Z,20.67
2018-02-10T10:33:13.317Z,17.58
2018-02-10T10:35:39.918Z,17.80
2018-02-10T10:38:06.523Z,18.65
2018-02-10T10:40:33.174Z,18.15
2018-02-10T10:42:59.745Z,18.20
2018-02-10T10:45:26.365Z,15.68
2018-02-10T10:47:52.975Z,15.90
2018-02-10T10:50:20.457Z,16.75
2018-02-10T10:52:47.770Z,16.90
2018-02-10T10:55:15.111Z,17.08
2018-02-10T10:57:41.710Z,19.15
2018-02-10T11:00:09.160Z,16.10
2018-02-10T11:02:36.528Z,14.98
2018-02-10T11:05:03.125Z,18.37
2018-02-10T11:07:29.702Z,17.90
2018-02-10T11:09:56.287Z,19.48
2018-02-10T11:12:23.643Z,19.55
2018-02-10T11:14:50.226Z,17.37
2018-02-10T11:17:16.824Z,18.85
2018-02-10T11:19:44.144Z,18.33
2018-02-10T11:22:10.754Z,23.62
2018-02-10T11:24:37.334Z,18.10
2018-02-10T11:27:04.945Z,18.00
2018-02-10T11:29:31.559Z,19.20
2018-02-10T11:31:58.144Z,21.10
2018-02-10T11:34:24.792Z,17.02
2018-02-10T11:36:51.366Z,14.70
2018-02-10T11:39:19.075Z,17.02
2018-02-10T11:41:45.678Z,16.25
2018-02-10T11:44:12.309Z,15.27
2018-02-10T11:46:38.942Z,14.25
2018-02-10T11:49:05.525Z,13.82
2018-02-10T11:51:32.899Z,16.50
2018-02-10T11:53:59.490Z,15.10
2018-02-10T11:56:26.084Z,12.13
2018-02-10T11:58:53.409Z,16.15
2018-02-10T12:01:20.105Z,14.57
2018-02-10T12:03:47.518Z,17.55
2018-02-10T12:06:14.106Z,15.77
2018-02-10T12:08:40.709Z,15.68
2018-02-10T12:11:08.006Z,16.90
2018-02-10T12:13:34.586Z,18.20
2018-02-10T12:16:01.199Z,15.73
2018-02-10T12:18:27.786Z,19.20
2018-02-10T12:20:54.383Z,17.95
2018-02-10T12:23:20.965Z,17.12
2018-02-10T12:25:47.586Z,15.45
2018-02-10T12:28:14.900Z,15.38
2018-02-10T12:30:41.461Z,13.68
2018-02-10T12:33:08.058Z,13.02
2018-02-10T12:35:34.676Z,16.60
2018-02-10T12:38:01.242Z,13.05
2018-02-10T12:40:27.829Z,17.33
2018-02-10T12:42:55.106Z,13.40
2018-02-10T12:45:21.694Z,14.43
2018-02-10T13:01:08.011Z,14.32
2018-02-10T13:03:34.601Z,17.37
2018-02-10T13:06:02.007Z,11.82
2018-02-10T13:08:28.604Z,15.65
2018-02-10T13:10:55.182Z,12.63
2018-02-10T13:13:21.804Z,13.10
2018-02-10T13:15:48.411Z,11.10
2018-02-10T13:18:15.002Z,11.00
2018-02-10T13:20:41.581Z,10.65
2018-02-10T13:23:09.008Z,18.98
2018-02-10T13:25:35.614Z,15.23
2018-02-10T13:28:02.281Z,15.50
2018-02-10T13:30:28.847Z,15.35
2018-02-10T13:32:55.537Z,17.80
2018-02-10T13:35:22.365Z,14.60
2018-02-10T13:37:49.066Z,10.60
2018-02-10T13:40:15.642Z,13.80
2018-02-10T13:42:42.277Z,16.40
2018-02-10T13:45:09.629Z,15.93
2018-02-10T13:47:36.234Z,12.82
2018-02-10T13:50:02.882Z,14.45
2018-02-10T13:52:30.238Z,28.35
2018-02-10T13:54:56.819Z,25.73
2018-02-10T13:57:23.441Z,17.12
2018-02-10T13:59:50.345Z,12.50
2018-02-10T14:02:17.026Z,9.25
2018-02-10T14:04:43.579Z,9.65
2018-02-10T14:07:10.184Z,8.95
2018-02-10T14:09:36.815Z,11.48
2018-02-10T14:12:03.418Z,9.52
2018-02-10T14:14:30.007Z,11.68
2018-02-10T14:16:56.557Z,11.75
2018-02-10T14:19:23.147Z,11.95
2018-02-10T14:21:49.754Z,13.18
2018-02-10T14:24:16.358Z,11.80
2018-02-10T14:26:42.965Z,13.05
2018-02-10T14:29:10.346Z,11.65
2018-02-10T14:31:36.998Z,13.00
2018-02-10T14:34:03.669Z,11.43
2018-02-10T14:36:30.274Z,12.98
2018-02-10T14:38:56.837Z,13.40
2018-02-10T14:41:24.281Z,18.87
2018-02-10T14:43:50.851Z,19.80
2018-02-10T14:46:18.208Z,18.62
2018-02-10T14:48:44.795Z,21.20
2018-02-10T14:51:11.377Z,15.90
2018-02-10T14:53:37.972Z,14.18
2018-02-10T14:56:04.545Z,14.25
2018-02-10T14:58:31.913Z,16.37
2018-02-10T15:00:58.515Z,16.12
2018-02-10T15:03:25.094Z,13.38
2018-02-10T15:05:52.426Z,12.30
2018-02-10T15:08:19.031Z,12.30
2018-02-10T15:10:45.641Z,14.85
2018-02-10T15:13:12.302Z,12.00
2018-02-10T15:15:38.912Z,13.82
2018-02-10T15:18:05.543Z,11.32
2018-02-10T15:20:33.112Z,12.98
2018-02-10T15:22:59.685Z,14.50
2018-02-10T15:25:26.329Z,12.70
2018-02-10T15:27:52.922Z,10.98
2018-02-10T15:30:37.978Z,13.98
2018-02-10T15:46:41.531Z,11.00
2018-02-10T15:49:08.140Z,11.77
2018-02-10T15:51:34.744Z,10.55
2018-02-10T15:54:02.097Z,10.40
2018-02-10T15:56:28.691Z,17.33
2018-02-10T15:58:55.243Z,18.15
2018-02-10T16:01:21.863Z,13.60
2018-02-10T16:03:49.096Z,19.10
2018-02-10T16:06:15.689Z,12.70
2018-02-10T16:08:42.295Z,12.55
2018-02-10T16:11:09.015Z,11.55
2018-02-10T16:13:36.368Z,14.45
2018-02-10T16:16:02.979Z,13.98
2018-02-10T16:18:29.596Z,19.50
2018-02-10T16:20:56.230Z,13.07
2018-02-10T16:23:22.871Z,12.13
2018-02-10T16:25:49.479Z,12.45
2018-02-10T16:28:16.083Z,12.80
2018-02-10T16:30:42.689Z,9.48
2018-02-10T16:33:09.290Z,13.20
2018-02-10T16:35:36.420Z,11.65
2018-02-10T16:38:02.990Z,10.25
2018-02-10T16:40:30.339Z,11.18
2018-02-10T16:42:57.675Z,29.95
2018-02-10T16:45:24.219Z,24.60
2018-02-10T16:47:51.573Z,14.18
2018-02-10T16:50:18.902Z,14.45
2018-02-10T16:52:45.826Z,12.57
2018-02-10T16:55:12.395Z,68.18
2018-02-10T16:57:38.967Z,38.45
2018-02-10T17:00:06.306Z,63.87
2018-02-10T17:02:32.895Z,23.30
2018-02-10T17:04:59.586Z,15.30
2018-02-10T17:07:26.883Z,18.50
2018-02-10T17:09:53.524Z,41.37
2018-02-10T17:12:20.125Z,36.90
2018-02-10T17:14:47.457Z,32.67
2018-02-10T17:17:14.050Z,26.95
2018-02-10T17:19:40.647Z,29.20
2018-02-10T17:22:07.980Z,27.80
2018-02-10T17:24:34.577Z,64.68
2018-02-10T17:27:01.158Z,45.75
2018-02-10T17:29:27.754Z,29.40
2018-02-10T17:31:54.423Z,19.35
2018-02-10T17:34:21.034Z,18.15
2018-02-10T17:36:47.599Z,21.15
2018-02-10T17:39:14.237Z,20.25
2018-02-10T17:41:40.798Z,26.50
2018-02-10T17:44:08.399Z,18.17
2018-02-10T17:46:34.994Z,16.35
2018-02-10T17:49:02.318Z,15.43
2018-02-10T17:51:28.933Z,14.43
2018-02-10T17:53:55.486Z,15.18
2018-02-10T17:56:22.859Z,15.18
2018-02-10T17:58:50.190Z,23.33
2018-02-10T18:01:16.815Z,28.95
2018-02-10T18:03:43.422Z,34.92
2018-02-10T18:06:10.047Z,23.12
2018-02-10T18:08:37.386Z,19.12
2018-02-10T18:11:04.738Z,18.50
2018-02-10T18:13:32.086Z,18.65
2018-02-10T18:15:58.726Z,19.50
2018-02-10T18:18:26.057Z,17.48
2018-02-10T18:20:52.665Z,16.37
2018-02-10T18:23:19.330Z,15.93
2018-02-10T18:25:45.930Z,18.80
2018-02-10T18:28:12.557Z,23.83
2018-02-10T18:30:39.159Z,23.95
2018-02-10T18:33:05.791Z,30.17
2018-02-10T18:35:32.370Z,24.98
2018-02-10T18:37:58.984Z,20.02
2018-02-10T18:40:26.430Z,16.77
2018-02-10T18:42:53.785Z,23.58
2018-02-10T18:45:21.148Z,17.70
2018-02-10T18:47:47.705Z,13.82
2018-02-10T18:50:14.345Z,14.10
2018-02-10T18:52:40.985Z,16.35
2018-02-10T18:55:07.612Z,16.20
2018-02-10T18:57:34.278Z,15.18
2018-02-10T19:00:00.888Z,15.02
2018-02-10T19:02:27.471Z,13.90
2018-02-10T19:04:54.254Z,14.30
2018-02-10T19:07:21.611Z,15.52
2018-02-10T19:09:48.198Z,18.35
2018-02-10T19:12:14.808Z,14.75
2018-02-10T19:14:41.598Z,16.75
2018-02-10T19:17:08.154Z,16.33
2018-02-10T19:19:35.506Z,17.10
2018-02-10T19:22:02.870Z,18.37
2018-02-10T19:24:29.462Z,13.90
2018-02-10T19:26:56.042Z,12.68
2018-02-10T19:29:22.650Z,14.32
2018-02-10T19:31:49.236Z,17.25
2018-02-10T19:34:15.858Z,12.40
2018-02-10T19:36:43.193Z,13.40
2018-02-10T19:39:10.542Z,14.05
2018-02-10T19:41:37.995Z,14.80
2018-02-10T19:44:04.609Z,13.23
2018-02-10T19:46:31.201Z,13.95
2018-02-10T19:48:57.796Z,13.55
2018-02-10T19:51:24.379Z,13.50
2018-02-10T19:53:51.010Z,12.60
2018-02-10T19:56:17.594Z,25.90
2018-02-10T19:58:44.235Z,16.42
2018-02-10T20:01:10.815Z,14.32
2018-02-10T20:03:37.621Z,13.88
2018-02-10T20:06:04.962Z,12.63
2018-02-10T20:08:31.557Z,14.70
2018-02-10T20:10:58.178Z,17.80
2018-02-10T20:13:25.521Z,15.20
2018-02-10T20:15:52.883Z,13.88
2018-02-10T20:18:19.498Z,15.30
2018-02-10T20:20:46.886Z,16.85
2018-02-10T20:23:13.535Z,19.85
2018-02-10T20:25:40.162Z,18.60
2018-02-10T20:28:06.770Z,19.45
2018-02-10T20:30:34.139Z,16.90
2018-02-10T20:33:00.755Z,16.50
2018-02-10T20:35:28.111Z,15.10
2018-02-10T20:37:55.480Z,19.08
2018-02-10T20:40:22.834Z,16.92
2018-02-10T20:42:50.183Z,16.35
2018-02-10T20:45:16.787Z,17.65
2018-02-10T20:47:43.921Z,13.02
2018-02-10T20:50:10.538Z,14.50
2018-02-10T20:52:37.155Z,14.13
2018-02-10T20:55:03.766Z,18.20
2018-02-10T20:57:30.371Z,17.08
2018-02-10T20:59:57.064Z,14.02
2018-02-10T21:02:24.495Z,15.68
2018-02-10T21:04:51.086Z,13.50
2018-02-10T21:07:17.678Z,17.15
2018-02-10T21:09:44.292Z,15.73
2018-02-10T21:12:10.918Z,14.85
2018-02-10T21:14:37.602Z,16.30
2018-02-10T21:17:04.964Z,14.73
2018-02-10T21:19:32.356Z,14.43
2018-02-10T21:21:58.937Z,13.43
2018-02-10T21:24:25.558Z,13.68
2018-02-10T21:26:52.171Z,15.32
2018-02-10T21:29:18.775Z,12.88
2018-02-10T21:31:45.385Z,14.27
2018-02-10T21:34:11.976Z,11.60
2018-02-10T21:36:38.988Z,12.90
2018-02-10T21:39:06.390Z,15.02
2018-02-10T21:41:33.007Z,12.65
2018-02-10T21:43:59.655Z,12.80
2018-02-10T21:46:26.225Z,12.27
2018-02-10T21:48:52.874Z,15.23
2018-02-10T21:51:19.472Z,13.95
2018-02-10T21:53:46.193Z,14.25
2018-02-10T21:56:12.815Z,14.15
2018-02-10T21:58:39.415Z,15.27
2018-02-10T22:01:06.023Z,14.40
2018-02-10T22:03:32.606Z,13.15
2018-02-10T22:05:59.977Z,14.57
2018-02-10T22:08:26.614Z,14.18
2018-02-10T22:10:53.276Z,13.85
2018-02-10T22:13:19.871Z,13.30
2018-02-10T22:15:47.264Z,13.45
2018-02-10T22:18:13.931Z,13.85
2018-02-10T22:20:40.554Z,13.55
2018-02-10T22:23:07.168Z,12.98
2018-02-10T22:25:34.490Z,12.75
2018-02-10T22:28:01.109Z,12.05
2018-02-10T22:30:27.752Z,13.23
2018-02-10T22:32:54.339Z,14.23
2018-02-10T22:35:20.958Z,14.07
2018-02-10T22:37:47.599Z,13.43
2018-02-10T22:40:14.269Z,14.18
2018-02-10T22:42:40.903Z,15.68
2018-02-10T22:45:07.683Z,12.75
2018-02-10T22:47:35.050Z,12.45
2018-02-10T22:50:02.405Z,14.32
2018-02-10T22:52:29.824Z,15.18
2018-02-10T22:54:56.419Z,12.70
2018-02-10T22:57:23.008Z,13.82
2018-02-10T22:59:49.613Z,13.30
2018-02-10T23:02:16.236Z,14.85
2018-02-10T23:04:42.913Z,11.82
2018-02-10T23:07:10.282Z,12.90
2018-02-10T23:09:36.871Z,15.90
2018-02-10T23:12:03.494Z,13.82
2018-02-10T23:14:30.089Z,13.90
2018-02-10T23:16:56.767Z,14.68
2018-02-10T23:19:23.408Z,11.95
2018-02-10T23:21:50.058Z,14.02
2018-02-10T23:24:16.632Z,15.25
2018-02-10T23:26:43.502Z,14.40
2018-02-10T23:29:10.131Z,14.68
2018-02-10T23:31:36.759Z,14.77
2018-02-10T23:34:03.380Z,13.50
2018-02-10T23:36:29.973Z,12.82
2018-02-10T23:38:57.308Z,14.68
2018-02-10T23:41:24.676Z,13.13
2018-02-10T23:43:52.074Z,15.00
2018-02-10T23:46:18.706Z,14.57
2018-02-10T23:48:45.298Z,15.35
2018-02-10T23:51:11.876Z,16.52
2018-02-10T23:53:38.490Z,15.18
2018-02-10T23:56:05.080Z,14.15
2018-02-10T23:58:31.689Z,13.38
